createdAt,value
2022-10-30T00:01:00.186Z,100022.69
2022-10-30T00:03:28.396Z,100030.09
2022-10-30T00:05:56.309Z,100025.62
2022-10-30T00:08:26.059Z,100025.44
2022-10-30T00:10:54.498Z,100021.97
2022-10-30T00:13:22.918Z,100025.91
2022-10-30T00:15:52.557Z,100032.84
2022-10-30T00:18:21.413Z,100027.34
2022-10-30T00:20:49.858Z,100026.19
2022-10-30T00:23:17.788Z,100016.19
2022-10-30T00:25:46.067Z,100023.22
2022-10-30T00:28:13.999Z,100023.28
2022-10-30T00:30:42.088Z,100010.84
2022-10-30T00:33:10.339Z,100019.91
2022-10-30T00:35:38.225Z,100013.13
2022-10-30T00:38:06.349Z,100010.00
2022-10-30T00:40:34.873Z,100001.00
2022-10-30T00:43:02.795Z,99999.28
2022-10-30T00:45:30.658Z,99995.63
2022-10-30T00:48:02.404Z,99998.22
2022-10-30T00:50:36.603Z,99997.72
2022-10-30T00:53:12.080Z,99998.88
2022-10-30T00:55:51.009Z,100001.31
2022-10-30T00:58:28.531Z,99998.53
2022-10-30T01:00:58.594Z,100006.53
2022-10-30T01:03:27.889Z,99992.22
2022-10-30T01:05:59.238Z,99999.16
2022-10-30T01:08:27.960Z,100001.81
2022-10-30T01:10:58.170Z,99991.50
2022-10-30T01:13:26.908Z,99994.78
2022-10-30T01:15:58.197Z,99996.22
2022-10-30T01:18:44.317Z,99985.37
2022-10-30T01:21:33.815Z,99990.25
2022-10-30T01:24:19.088Z,99980.34
2022-10-30T01:26:57.708Z,99976.88
2022-10-30T01:29:25.637Z,99968.28
2022-10-30T01:32:15.600Z,99963.03
2022-10-30T01:34:44.739Z,99965.28
2022-10-30T01:37:28.418Z,99954.38
2022-10-30T01:39:56.328Z,99959.44
2022-10-30T01:42:47.687Z,99949.47
2022-10-30T01:45:21.671Z,99957.84
2022-10-30T01:48:01.834Z,99957.59
2022-10-30T01:50:41.187Z,99951.41
2022-10-30T01:53:22.299Z,99966.84
2022-10-30T01:55:50.228Z,99967.34
2022-10-30T01:58:27.070Z,99966.16
2022-10-30T02:00:57.766Z,99975.34
2022-10-30T02:03:27.467Z,99965.38
2022-10-30T02:05:56.806Z,99960.31
2022-10-30T02:08:25.388Z,99958.59
2022-10-30T02:10:55.266Z,99962.31
2022-10-30T02:13:30.566Z,99967.38
2022-10-30T02:15:59.404Z,99965.31
2022-10-30T02:18:27.346Z,99962.25
2022-10-30T02:20:55.659Z,99968.53
2022-10-30T02:23:23.616Z,99974.97
2022-10-30T02:25:51.865Z,99966.12
2022-10-30T02:28:19.817Z,99967.25
2022-10-30T02:30:47.869Z,99973.06
2022-10-30T02:35:49.028Z,99962.31
2022-10-30T02:38:17.328Z,99962.16
2022-10-30T02:40:45.897Z,99963.16
2022-10-30T02:43:13.861Z,99965.47
2022-10-30T02:45:42.156Z,99961.88
2022-10-30T02:50:43.208Z,99967.03
2022-10-30T02:53:11.365Z,99958.44
2022-10-30T02:55:39.247Z,99953.56
2022-10-30T02:58:07.527Z,99953.31
2022-10-30T03:00:35.421Z,99955.41
2022-10-30T03:03:03.300Z,99960.00
2022-10-30T03:05:31.531Z,99961.97
2022-10-30T03:07:59.920Z,99965.47
2022-10-30T03:10:28.188Z,99963.37
2022-10-30T03:12:56.448Z,99958.34
2022-10-30T03:15:24.365Z,99965.06
2022-10-30T03:17:52.977Z,99955.37
2022-10-30T03:20:21.571Z,99956.63
2022-10-30T03:22:49.491Z,99956.13
2022-10-30T03:25:24.023Z,99966.41
2022-10-30T03:27:54.433Z,99960.34
2022-10-30T03:30:22.876Z,99961.69
2022-10-30T03:32:50.697Z,99951.12
2022-10-30T03:35:19.026Z,99957.28
2022-10-30T03:37:46.907Z,99948.53
2022-10-30T03:40:14.879Z,99952.28
2022-10-30T03:42:43.168Z,99948.53
2022-10-30T03:45:11.169Z,99957.72
2022-10-30T03:47:40.869Z,99955.63
2022-10-30T03:50:09.758Z,99950.34
2022-10-30T03:52:37.620Z,99955.97
2022-10-30T03:55:06.012Z,99953.88
2022-10-30T03:57:37.490Z,99949.84
2022-10-30T04:00:07.042Z,99950.81
2022-10-30T04:02:52.219Z,99954.25
2022-10-30T04:05:22.229Z,99948.22
2022-10-30T04:07:59.080Z,99952.81
2022-10-30T04:10:27.680Z,99943.84
2022-10-30T04:13:03.357Z,99940.53
2022-10-30T04:15:32.088Z,99944.34
2022-10-30T04:18:00.674Z,99936.56
2022-10-30T04:20:28.960Z,99940.59
2022-10-30T04:22:59.497Z,99939.69
2022-10-30T04:25:29.388Z,99938.97
2022-10-30T04:27:57.916Z,99938.84
2022-10-30T04:30:27.439Z,99940.69
2022-10-30T04:32:56.604Z,99941.03
2022-10-30T04:35:28.526Z,99942.84
2022-10-30T04:38:05.258Z,99939.03
2022-10-30T04:40:35.520Z,99940.16
2022-10-30T04:43:03.667Z,99945.50
2022-10-30T04:45:32.087Z,99941.84
2022-10-30T04:48:02.254Z,99942.81
2022-10-30T04:50:31.955Z,99937.97
2022-10-30T04:53:05.197Z,99938.56
2022-10-30T04:55:33.324Z,99942.69
2022-10-30T04:58:04.915Z,99940.37
2022-10-30T05:00:33.287Z,99948.19
2022-10-30T05:03:02.702Z,99948.81
2022-10-30T05:05:31.500Z,99942.41
2022-10-30T05:07:59.953Z,99941.84
2022-10-30T05:10:29.829Z,99943.31
2022-10-30T05:13:00.344Z,99942.19
2022-10-30T05:15:29.169Z,99941.50
2022-10-30T05:17:57.209Z,99948.84
2022-10-30T05:20:25.309Z,99956.41
2022-10-30T05:22:58.259Z,99956.59
2022-10-30T05:25:27.876Z,99955.94
2022-10-30T05:28:03.470Z,99955.53
2022-10-30T05:30:33.656Z,99961.47
2022-10-30T05:33:03.968Z,99961.00
2022-10-30T05:35:33.738Z,99965.41
2022-10-30T05:38:06.911Z,99973.94
2022-10-30T05:40:35.471Z,99974.88
2022-10-30T05:43:04.677Z,99973.38
2022-10-30T05:45:33.204Z,99987.72
2022-10-30T05:48:05.927Z,99987.56
2022-10-30T05:50:34.848Z,99988.94
2022-10-30T05:53:10.731Z,99993.87
2022-10-30T05:55:39.570Z,99972.63
2022-10-30T05:58:08.149Z,99977.47
2022-10-30T06:00:36.818Z,99974.19
2022-10-30T06:03:11.048Z,99976.69
2022-10-30T06:05:40.663Z,99975.34
2022-10-30T06:08:09.182Z,99975.12
2022-10-30T06:10:37.973Z,99974.72
2022-10-30T06:13:07.469Z,99969.69
2022-10-30T06:15:36.454Z,99972.63
2022-10-30T06:18:04.488Z,99972.41
2022-10-30T06:20:32.719Z,99981.22
2022-10-30T06:23:07.968Z,99984.38
2022-10-30T06:25:40.978Z,99987.22
2022-10-30T06:28:11.231Z,99983.44
2022-10-30T06:30:39.619Z,99973.06
2022-10-30T06:33:08.031Z,99982.38
2022-10-30T06:35:36.660Z,99983.69
2022-10-30T06:38:05.298Z,99981.97
2022-10-30T06:40:33.701Z,99984.81
2022-10-30T06:43:02.792Z,99980.81
2022-10-30T06:45:30.969Z,99982.91
2022-10-30T06:48:00.500Z,99980.47
2022-10-30T06:50:30.542Z,99987.78
2022-10-30T06:52:58.430Z,99995.03
2022-10-30T06:55:26.391Z,99998.69
2022-10-30T06:57:58.954Z,99999.66
2022-10-30T07:00:28.361Z,99998.06
2022-10-30T07:03:02.722Z,99994.03
2022-10-30T07:05:31.349Z,100006.00
2022-10-30T07:08:00.073Z,100013.22
2022-10-30T07:10:28.042Z,100004.75
2022-10-30T07:12:59.456Z,99994.37
2022-10-30T07:15:30.807Z,99992.59
2022-10-30T07:18:04.313Z,99999.09
2022-10-30T07:20:35.066Z,99999.44
2022-10-30T07:23:03.836Z,99997.00
2022-10-30T07:25:32.480Z,100003.00
2022-10-30T07:28:02.318Z,100002.69
2022-10-30T07:30:30.953Z,100003.37
2022-10-30T07:33:03.535Z,99996.78
2022-10-30T07:35:33.126Z,100004.16
2022-10-30T07:38:08.090Z,99998.56
2022-10-30T07:40:37.268Z,100000.56
2022-10-30T07:43:06.997Z,100016.44
2022-10-30T07:45:37.079Z,100015.81
2022-10-30T07:48:08.049Z,100025.78
2022-10-30T07:50:36.051Z,100016.00
2022-10-30T07:53:03.958Z,100020.19
2022-10-30T07:55:33.220Z,100010.16
2022-10-30T07:58:03.229Z,100014.50
2022-10-30T08:00:32.110Z,100007.34
2022-10-30T08:03:00.987Z,100010.84
2022-10-30T08:05:30.412Z,100018.03
2022-10-30T08:07:59.728Z,100009.13
2022-10-30T08:10:28.766Z,100014.00
2022-10-30T08:12:56.681Z,100014.84
2022-10-30T08:15:24.742Z,100014.41
2022-10-30T08:17:53.032Z,100015.22
2022-10-30T08:20:23.719Z,100019.53
2022-10-30T08:22:56.599Z,100020.09
2022-10-30T08:25:28.018Z,100019.81
2022-10-30T08:28:01.368Z,100022.84
2022-10-30T08:30:34.547Z,100023.13
2022-10-30T08:33:08.561Z,100014.63
2022-10-30T08:35:53.918Z,100019.25
2022-10-30T08:38:22.079Z,100018.28
2022-10-30T08:40:50.541Z,100019.25
2022-10-30T08:43:18.932Z,100028.62
2022-10-30T08:45:47.240Z,100027.37
2022-10-30T08:48:16.612Z,100029.31
2022-10-30T08:50:45.200Z,100018.88
2022-10-30T08:53:15.150Z,100025.84
2022-10-30T08:55:45.159Z,100020.63
2022-10-30T08:58:13.791Z,100022.34
2022-10-30T09:00:42.286Z,100018.91
2022-10-30T09:03:13.151Z,100025.12
2022-10-30T09:05:43.209Z,100021.19
2022-10-30T09:08:12.930Z,100018.56
2022-10-30T09:10:45.358Z,100017.41
2022-10-30T09:13:13.778Z,100019.41
2022-10-30T09:15:41.819Z,100019.22
2022-10-30T09:18:10.049Z,100021.44
2022-10-30T09:20:38.767Z,100026.31
2022-10-30T09:23:06.719Z,100026.53
2022-10-30T09:25:35.138Z,100014.75
2022-10-30T09:28:04.129Z,100021.97
2022-10-30T09:30:33.629Z,100014.50
2022-10-30T09:33:03.321Z,100010.50
2022-10-30T09:35:33.319Z,100013.06
2022-10-30T09:38:01.697Z,100015.72
2022-10-30T09:40:58.044Z,100011.44
2022-10-30T09:43:35.258Z,100015.00
2022-10-30T09:46:24.712Z,100007.63
2022-10-30T09:48:58.785Z,100009.56
2022-10-30T09:51:54.132Z,100012.03
2022-10-30T09:55:07.059Z,100003.63
2022-10-30T09:57:41.271Z,100003.91
2022-10-30T10:00:20.142Z,99994.53
2022-10-30T10:03:27.171Z,99992.72
2022-10-30T10:05:59.537Z,99995.91
2022-10-30T10:08:53.387Z,99996.06
2022-10-30T10:11:27.752Z,99989.31
2022-10-30T10:14:09.733Z,100000.22
2022-10-30T10:16:39.979Z,99992.87
2022-10-30T10:19:22.937Z,99994.81
2022-10-30T10:21:57.937Z,99988.66
2022-10-30T10:24:31.437Z,99981.09
2022-10-30T10:27:23.670Z,99980.78
2022-10-30T10:30:03.737Z,99980.94
2022-10-30T10:33:08.477Z,99984.56
2022-10-30T10:36:05.309Z,99976.81
2022-10-30T10:38:39.158Z,99978.13
2022-10-30T10:41:23.028Z,99975.94
2022-10-30T10:44:03.225Z,99979.75
2022-10-30T10:46:54.149Z,99972.69
2022-10-30T10:49:40.777Z,99973.62
2022-10-30T10:52:16.386Z,99970.41
2022-10-30T10:54:46.729Z,99970.78
2022-10-30T10:57:26.190Z,99963.41
2022-10-30T10:59:58.490Z,99962.59
2022-10-30T11:03:01.515Z,99963.44
2022-10-30T11:05:47.458Z,99968.03
2022-10-30T11:08:25.379Z,99968.69
2022-10-30T11:11:04.749Z,99964.44
2022-10-30T11:13:40.172Z,99957.00
2022-10-30T11:16:28.320Z,99960.56
2022-10-30T11:19:01.308Z,99950.94
2022-10-30T11:21:32.727Z,99954.22
2022-10-30T11:24:01.110Z,99949.88
2022-10-30T11:26:32.266Z,99943.69
2022-10-30T11:29:20.448Z,99952.56
2022-10-30T11:32:01.951Z,99951.78
2022-10-30T11:34:35.218Z,99946.22
2022-10-30T11:37:04.167Z,99947.34
2022-10-30T11:39:34.400Z,99943.75
2022-10-30T11:42:15.040Z,99937.31
2022-10-30T11:44:46.168Z,99944.28
2022-10-30T11:47:15.891Z,99950.97
2022-10-30T11:49:51.172Z,99944.97
2022-10-30T11:52:21.661Z,99945.38
2022-10-30T11:54:56.490Z,99934.16
2022-10-30T11:57:34.113Z,99934.63
2022-10-30T12:00:05.720Z,99938.47
2022-10-30T12:02:44.881Z,99936.56
2022-10-30T12:05:28.205Z,99936.25
2022-10-30T12:08:17.591Z,99933.97
2022-10-30T12:10:59.054Z,99931.16
2022-10-30T12:13:27.550Z,99931.47
2022-10-30T12:16:08.492Z,99919.00
2022-10-30T12:18:36.932Z,99913.75
2022-10-30T12:21:05.550Z,99914.41
2022-10-30T12:23:33.910Z,99907.69
2022-10-30T12:26:08.751Z,99914.06
2022-10-30T12:28:37.033Z,99915.22
2022-10-30T12:31:33.860Z,99919.78
2022-10-30T12:36:48.281Z,99923.13
2022-10-30T12:39:29.770Z,99928.16
2022-10-30T12:42:04.638Z,99925.91
2022-10-30T12:44:37.403Z,99918.31
2022-10-30T12:47:28.296Z,99925.87
2022-10-30T12:53:22.080Z,99925.34
2022-10-30T12:55:51.700Z,99925.78
2022-10-30T12:58:37.690Z,99927.47
2022-10-30T13:01:16.177Z,99927.16
2022-10-30T13:03:53.478Z,99927.44
2022-10-30T13:06:26.558Z,99925.69
2022-10-30T13:09:00.553Z,99921.81
2022-10-30T13:11:39.933Z,99922.41
2022-10-30T13:14:14.656Z,99911.00
2022-10-30T13:16:42.882Z,99924.06
2022-10-30T13:19:12.999Z,99920.31
2022-10-30T13:24:18.642Z,99921.41
2022-10-30T13:26:52.419Z,99920.25
2022-10-30T13:29:39.229Z,99910.69
2022-10-30T13:32:39.798Z,99921.88
2022-10-30T13:35:18.228Z,99921.69
2022-10-30T13:37:48.994Z,99922.28
2022-10-30T13:40:51.043Z,99927.81
2022-10-30T13:43:37.485Z,99927.69
2022-10-30T13:46:26.756Z,99927.00
2022-10-30T13:49:12.930Z,99918.44
2022-10-30T13:51:48.104Z,99920.88
2022-10-30T13:54:35.601Z,99914.84
2022-10-30T13:57:25.328Z,99918.59
2022-10-30T13:59:56.219Z,99912.34
2022-10-30T14:02:39.582Z,99904.78
2022-10-30T14:05:31.818Z,99904.63
2022-10-30T14:08:06.713Z,99896.75
2022-10-30T14:10:45.619Z,99903.31
2022-10-30T14:13:47.532Z,99913.81
2022-10-30T14:16:37.941Z,99904.78
2022-10-30T14:19:16.410Z,99909.63
2022-10-30T14:21:54.587Z,99921.38
2022-10-30T14:27:04.299Z,99918.97
2022-10-30T14:29:35.058Z,99921.56
2022-10-30T14:32:15.188Z,99924.34
2022-10-30T14:34:52.699Z,99929.34
2022-10-30T14:37:31.438Z,99921.41
2022-10-30T14:40:37.440Z,99920.25
2022-10-30T14:43:34.883Z,99915.91
2022-10-30T14:46:11.008Z,99912.34
2022-10-30T14:48:49.091Z,99914.84
2022-10-30T14:51:21.468Z,99914.19
2022-10-30T14:54:22.210Z,99914.19
2022-10-30T14:56:51.545Z,99911.53
2022-10-30T14:59:19.672Z,99907.19
2022-10-30T15:02:03.023Z,99902.37
2022-10-30T15:04:37.508Z,99902.19
2022-10-30T15:07:23.037Z,99896.41
2022-10-30T15:10:03.139Z,99889.84
2022-10-30T15:13:10.140Z,99885.44
2022-10-30T15:15:38.651Z,99894.22
2022-10-30T15:18:12.002Z,99886.00
2022-10-30T15:20:40.515Z,99886.28
2022-10-30T15:23:19.462Z,99888.41
2022-10-30T15:25:50.829Z,99892.16
2022-10-30T15:28:21.251Z,99892.72
2022-10-30T15:31:28.667Z,99889.63
2022-10-30T15:33:58.337Z,99889.88
2022-10-30T15:36:36.047Z,99899.16
2022-10-30T15:39:09.640Z,99892.84
2022-10-30T15:41:46.797Z,99897.09
2022-10-30T15:46:53.378Z,99895.28
2022-10-30T15:49:29.488Z,99902.69
2022-10-30T15:51:59.346Z,99897.75
2022-10-30T15:54:28.368Z,99911.56
2022-10-30T15:59:56.462Z,99914.19
2022-10-30T16:02:27.232Z,99912.25
2022-10-30T16:04:55.765Z,99908.47
2022-10-30T16:07:26.049Z,99903.72
2022-10-30T16:09:58.958Z,99910.34
2022-10-30T16:12:32.803Z,99909.41
2022-10-30T16:15:23.064Z,99909.44
2022-10-30T16:18:19.618Z,99915.75
2022-10-30T16:20:53.718Z,99913.47
2022-10-30T16:23:22.662Z,99907.63
2022-10-30T16:25:55.948Z,99909.75
2022-10-30T16:28:27.740Z,99908.72
2022-10-30T16:30:58.180Z,99901.69
2022-10-30T16:33:28.263Z,99902.91
2022-10-30T16:35:56.851Z,99895.69
2022-10-30T16:38:28.253Z,99895.91
2022-10-30T16:40:56.760Z,99911.53
2022-10-30T16:43:29.942Z,99916.13
2022-10-30T16:46:18.817Z,99924.34
2022-10-30T16:48:51.887Z,99922.84
2022-10-30T16:51:21.721Z,99921.28
2022-10-30T16:53:51.459Z,99917.69
2022-10-30T16:56:28.642Z,99917.87
2022-10-30T16:59:05.468Z,99924.13
2022-10-30T17:01:33.677Z,99924.19
2022-10-30T17:04:02.251Z,99915.63
2022-10-30T17:06:43.614Z,99917.03
2022-10-30T17:09:28.939Z,99921.38
2022-10-30T17:12:26.870Z,99924.94
2022-10-30T17:15:07.133Z,99929.50
2022-10-30T17:17:39.758Z,99932.19
2022-10-30T17:20:29.992Z,99915.75
2022-10-30T17:23:25.808Z,99920.09
2022-10-30T17:25:55.397Z,99925.22
2022-10-30T17:28:34.153Z,99932.69
2022-10-30T17:31:24.388Z,99926.34
2022-10-30T17:34:18.279Z,99932.06
2022-10-30T17:36:49.681Z,99930.38
2022-10-30T17:39:17.500Z,99936.19
2022-10-30T17:41:46.543Z,99928.88
2022-10-30T17:44:20.318Z,99932.16
2022-10-30T17:46:48.272Z,99932.81
2022-10-30T17:49:29.049Z,99938.09
2022-10-30T17:51:57.530Z,99938.84
2022-10-30T17:54:25.976Z,99929.59
2022-10-30T17:56:53.981Z,99936.22
2022-10-30T17:59:21.930Z,99935.56
2022-10-30T18:01:50.445Z,99938.75
2022-10-30T18:04:21.538Z,99941.09
2022-10-30T18:06:49.989Z,99936.00
2022-10-30T18:09:18.291Z,99951.72
2022-10-30T18:11:46.181Z,99942.66
2022-10-30T18:14:14.051Z,99942.78
2022-10-30T18:16:42.300Z,99942.44
2022-10-30T18:19:11.267Z,99939.00
2022-10-30T18:21:39.171Z,99933.22
2022-10-30T18:24:12.305Z,99932.47
2022-10-30T18:26:41.066Z,99936.25
2022-10-30T18:29:10.111Z,99929.69
2022-10-30T18:31:39.497Z,99927.41
2022-10-30T18:34:19.841Z,99929.50
2022-10-30T18:36:49.220Z,99930.75
2022-10-30T18:39:17.152Z,99922.25
2022-10-30T18:41:46.447Z,99924.34
2022-10-30T18:44:18.460Z,99925.16
2022-10-30T18:46:46.412Z,99929.50
2022-10-30T18:49:14.848Z,99931.09
2022-10-30T18:51:42.780Z,99930.97
2022-10-30T18:54:17.189Z,99926.66
2022-10-30T18:56:45.351Z,99934.28
2022-10-30T18:59:13.168Z,99932.72
2022-10-30T19:01:41.312Z,99929.47
2022-10-30T19:04:10.631Z,99924.22
2022-10-30T19:06:39.159Z,99931.25
2022-10-30T19:09:07.386Z,99928.41
2022-10-30T19:11:38.283Z,99938.66
2022-10-30T19:14:13.349Z,99942.25
2022-10-30T19:16:41.872Z,99939.00
2022-10-30T19:19:09.741Z,99937.53
2022-10-30T19:21:37.662Z,99943.19
2022-10-30T19:24:13.623Z,99939.63
2022-10-30T19:26:41.518Z,99944.41
2022-10-30T19:29:09.680Z,99933.78
2022-10-30T19:31:37.528Z,99937.56
2022-10-30T19:34:05.529Z,99932.44
2022-10-30T19:36:36.623Z,99922.91
2022-10-30T19:39:10.901Z,99928.78
2022-10-30T19:41:40.268Z,99934.97
2022-10-30T19:44:08.230Z,99944.75
2022-10-30T19:46:37.151Z,99924.00
2022-10-30T19:49:15.603Z,99929.91
2022-10-30T19:51:43.470Z,99930.22
2022-10-30T19:54:11.768Z,99929.69
2022-10-30T19:56:39.660Z,99930.66
2022-10-30T19:59:12.409Z,99930.41
2022-10-30T20:01:41.891Z,99924.06
2022-10-30T20:04:10.520Z,99928.50
2022-10-30T20:06:38.556Z,99927.72
2022-10-30T20:09:06.417Z,99933.03
2022-10-30T20:11:34.647Z,99933.75
2022-10-30T20:14:02.582Z,99933.22
2022-10-30T20:16:30.458Z,99934.53
2022-10-30T20:18:58.780Z,99939.87
2022-10-30T20:21:27.920Z,99934.84
2022-10-30T20:23:55.777Z,99927.41
2022-10-30T20:26:28.907Z,99933.53
2022-10-30T20:28:57.526Z,99938.66
2022-10-30T20:31:26.259Z,99935.09
2022-10-30T20:33:54.275Z,99936.44
2022-10-30T20:36:22.194Z,99935.38
2022-10-30T20:38:50.673Z,99943.53
2022-10-30T20:41:21.981Z,99936.94
2022-10-30T20:43:50.798Z,99935.59
2022-10-30T20:46:19.301Z,99936.28
2022-10-30T20:48:47.888Z,99943.94
2022-10-30T20:51:16.255Z,99939.06
2022-10-30T20:53:44.181Z,99941.81
2022-10-30T20:56:12.214Z,99936.44
2022-10-30T20:58:40.938Z,99929.91
2022-10-30T21:01:08.947Z,99932.28
2022-10-30T21:03:37.008Z,99930.00
2022-10-30T21:06:09.920Z,99933.28
2022-10-30T21:08:38.315Z,99932.44
2022-10-30T21:11:07.173Z,99926.06
2022-10-30T21:13:36.046Z,99931.50
2022-10-30T21:16:08.210Z,99928.97
2022-10-30T21:18:37.799Z,99931.78
2022-10-30T21:21:07.950Z,99934.81
2022-10-30T21:23:36.208Z,99939.00
2022-10-30T21:26:08.412Z,99942.81
2022-10-30T21:28:37.694Z,99944.00
2022-10-30T21:31:07.944Z,99930.69
2022-10-30T21:33:37.257Z,99926.69
2022-10-30T21:36:11.932Z,99928.59
2022-10-30T21:38:47.657Z,99936.00
2022-10-30T21:41:21.227Z,99933.03
2022-10-30T21:43:54.468Z,99934.34
2022-10-30T21:46:24.012Z,99935.06
2022-10-30T21:48:52.657Z,99932.50
2022-10-30T21:51:25.761Z,99932.31
2022-10-30T21:53:55.269Z,99923.69
2022-10-30T21:56:25.891Z,99931.00
2022-10-30T21:58:59.547Z,99926.78
2022-10-30T22:01:30.128Z,99940.22
2022-10-30T22:03:59.937Z,99932.47
2022-10-30T22:06:28.018Z,99923.66
2022-10-30T22:08:57.058Z,99923.75
2022-10-30T22:11:27.789Z,99917.72
2022-10-30T22:13:57.851Z,99914.63
2022-10-30T22:16:28.770Z,99916.56
2022-10-30T22:18:57.808Z,99921.91
2022-10-30T22:21:25.939Z,99919.75
2022-10-30T22:23:54.238Z,99926.59
2022-10-30T22:26:23.530Z,99921.94
2022-10-30T22:28:56.108Z,99926.91
2022-10-30T22:31:25.377Z,99927.59
2022-10-30T22:33:53.701Z,99930.16
2022-10-30T22:36:22.718Z,99927.75
2022-10-30T22:39:07.737Z,99919.44
2022-10-30T22:41:38.123Z,99931.50
2022-10-30T22:44:09.002Z,99938.06
2022-10-30T22:46:37.440Z,99935.81
2022-10-30T22:49:06.009Z,99922.47
2022-10-30T22:51:35.642Z,99925.84
2022-10-30T22:54:05.695Z,99923.50
2022-10-30T22:56:35.587Z,99923.94
2022-10-30T22:59:06.187Z,99918.88
2022-10-30T23:01:35.559Z,99914.31
2022-10-30T23:04:05.038Z,99917.81
2022-10-30T23:06:34.360Z,99931.34
2022-10-30T23:09:05.141Z,99939.84
2022-10-30T23:11:33.497Z,99939.94
2022-10-30T23:14:01.649Z,99935.31
2022-10-30T23:16:29.917Z,99939.97
2022-10-30T23:18:59.809Z,99932.56
2022-10-30T23:21:29.901Z,99931.87
2022-10-30T23:23:58.959Z,99937.41
2022-10-30T23:26:29.629Z,99921.50
2022-10-30T23:28:58.337Z,99918.31
2022-10-30T23:31:30.967Z,99919.06
2022-10-30T23:34:00.349Z,99918.91
2022-10-30T23:36:28.708Z,99923.38
2022-10-30T23:38:58.555Z,99933.16
2022-10-30T23:41:28.777Z,99918.56
2022-10-30T23:43:58.835Z,99911.81
2022-10-30T23:46:26.899Z,99912.84
2022-10-30T23:48:55.189Z,99918.53
2022-10-30T23:51:23.778Z,99920.78
2022-10-30T23:53:51.811Z,99913.97
2022-10-30T23:56:20.164Z,99915.47
2022-10-30T23:58:50.158Z,99905.66
